createdAt,value
2022-11-17T00:01:46.363Z,-13.29
2022-11-17T00:04:15.232Z,-13.47
2022-11-17T00:06:43.970Z,-13.23
2022-11-17T00:09:18.144Z,-13.18
2022-11-17T00:12:07.411Z,-13.12
2022-11-17T00:14:41.981Z,-13.03
2022-11-17T00:17:13.381Z,-12.99
2022-11-17T00:20:00.533Z,-13.16
2022-11-17T00:22:32.968Z,-13.15
2022-11-17T00:25:01.839Z,-13.43
2022-11-17T00:27:30.737Z,-13.40
2022-11-17T00:29:59.210Z,-13.23
2022-11-17T00:32:46.178Z,-13.39
2022-11-17T00:35:14.983Z,-13.63
2022-11-17T00:38:02.168Z,-13.81
2022-11-17T00:40:31.162Z,-13.32
2022-11-17T00:42:59.922Z,-13.17
2022-11-17T00:45:28.475Z,-14.15
2022-11-17T00:47:57.128Z,-13.15
2022-11-17T00:50:25.766Z,-13.26
2022-11-17T00:52:54.454Z,-13.85
2022-11-17T00:55:23.761Z,-13.47
2022-11-17T00:57:52.570Z,-13.63
2022-11-17T01:00:22.176Z,-13.40
2022-11-17T01:02:51.032Z,-13.41
2022-11-17T01:05:19.659Z,-13.30
2022-11-17T01:07:48.266Z,-13.25
2022-11-17T01:10:17.204Z,-13.54
2022-11-17T01:12:45.916Z,-13.40
2022-11-17T01:15:14.467Z,-13.31
2022-11-17T01:17:43.189Z,-13.40
2022-11-17T01:20:12.121Z,-13.40
2022-11-17T01:22:40.890Z,-13.37
2022-11-17T01:25:09.786Z,-13.34
2022-11-17T01:27:38.579Z,-13.22
2022-11-17T01:30:08.104Z,-13.22
2022-11-17T01:32:36.783Z,-13.49
2022-11-17T01:35:05.488Z,-13.45
2022-11-17T01:37:34.237Z,-13.32
2022-11-17T01:40:02.857Z,-13.46
2022-11-17T01:42:32.221Z,-13.27
2022-11-17T01:45:25.776Z,-13.26
2022-11-17T01:48:00.845Z,-13.11
2022-11-17T01:50:40.121Z,-13.26
2022-11-17T01:53:15.016Z,-13.27
2022-11-17T01:55:53.100Z,-13.14
2022-11-17T01:58:37.378Z,-13.17
2022-11-17T02:01:06.524Z,-13.44
2022-11-17T02:03:37.735Z,-13.40
2022-11-17T02:06:30.784Z,-13.34
2022-11-17T02:09:03.296Z,-13.43
2022-11-17T02:11:36.699Z,-13.57
2022-11-17T02:14:08.538Z,-13.57
2022-11-17T02:16:36.782Z,-13.84
2022-11-17T02:19:05.347Z,-13.91
2022-11-17T02:22:02.705Z,-13.58
2022-11-17T02:24:55.661Z,-13.59
2022-11-17T02:27:41.207Z,-13.59
2022-11-17T02:30:14.329Z,-13.69
2022-11-17T02:33:01.942Z,-13.71
2022-11-17T02:35:46.370Z,-13.80
2022-11-17T02:38:29.847Z,-13.74
2022-11-17T02:41:20.147Z,-13.75
2022-11-17T02:44:06.201Z,-14.55
2022-11-17T02:46:46.644Z,-14.10
2022-11-17T02:49:26.660Z,-13.99
2022-11-17T02:51:59.961Z,-14.21
2022-11-17T02:54:31.500Z,-13.87
2022-11-17T02:56:59.560Z,-13.79
2022-11-17T02:59:38.494Z,-14.03
2022-11-17T03:02:19.559Z,-13.69
2022-11-17T03:05:18.730Z,-13.65
2022-11-17T03:08:22.093Z,-13.67
2022-11-17T03:11:11.403Z,-14.07
2022-11-17T03:13:51.294Z,-13.88
2022-11-17T03:16:28.895Z,-13.75
2022-11-17T03:19:19.506Z,-13.85
2022-11-17T03:22:05.963Z,-13.75
2022-11-17T03:24:39.902Z,-13.90
2022-11-17T03:27:27.186Z,-13.89
2022-11-17T03:30:00.901Z,-13.85
2022-11-17T03:32:33.913Z,-13.84
2022-11-17T03:35:12.058Z,-13.76
2022-11-17T03:37:46.394Z,-13.77
2022-11-17T03:40:17.648Z,-13.63
2022-11-17T03:42:53.475Z,-13.77
2022-11-17T03:45:28.785Z,-13.78
2022-11-17T03:48:12.485Z,-13.78
2022-11-17T03:50:56.263Z,-13.55
2022-11-17T03:53:24.992Z,-14.09
2022-11-17T03:55:56.183Z,-13.51
2022-11-17T03:58:29.628Z,-13.77
2022-11-17T04:01:00.884Z,-13.83
2022-11-17T04:03:39.006Z,-13.68
2022-11-17T04:06:07.803Z,-13.63
2022-11-17T04:08:36.279Z,-13.46
2022-11-17T04:11:23.055Z,-13.40
2022-11-17T04:14:10.293Z,-13.43
2022-11-17T04:16:39.247Z,-13.62
2022-11-17T04:19:07.724Z,-14.03
2022-11-17T04:21:37.447Z,-13.15
2022-11-17T04:24:06.498Z,-13.29
2022-11-17T04:26:53.425Z,-13.15
2022-11-17T04:29:21.986Z,-13.60
2022-11-17T04:31:50.507Z,-13.43
2022-11-17T04:34:19.017Z,-13.24
2022-11-17T04:36:47.809Z,-13.38
2022-11-17T04:39:16.761Z,-13.28
2022-11-17T04:41:54.711Z,-13.22
2022-11-17T04:44:28.013Z,-13.09
2022-11-17T04:46:57.540Z,-13.18
2022-11-17T04:49:26.944Z,-13.17
2022-11-17T04:51:55.583Z,-13.27
2022-11-17T04:54:25.368Z,-13.19
2022-11-17T04:56:55.297Z,-13.23
2022-11-17T04:59:24.733Z,-13.25
2022-11-17T05:01:53.359Z,-13.19
2022-11-17T05:04:40.831Z,-13.17
2022-11-17T05:07:10.005Z,-13.36
2022-11-17T05:09:38.952Z,-13.27
2022-11-17T05:12:26.051Z,-13.22
2022-11-17T05:14:54.793Z,-13.26
2022-11-17T05:17:23.256Z,-13.25
2022-11-17T05:19:53.947Z,-13.51
2022-11-17T05:22:43.895Z,-13.32
2022-11-17T05:25:12.491Z,-13.29
2022-11-17T05:27:41.025Z,-13.02
2022-11-17T05:30:10.367Z,-12.73
2022-11-17T05:32:38.975Z,-12.70
2022-11-17T05:35:08.108Z,-12.50
2022-11-17T05:37:36.619Z,-12.43
2022-11-17T05:40:05.535Z,-12.04
2022-11-17T05:42:36.023Z,-12.18
2022-11-17T05:45:04.747Z,-11.80
2022-11-17T05:47:33.514Z,-11.43
2022-11-17T05:50:02.003Z,-11.49
2022-11-17T05:52:30.702Z,-11.21
2022-11-17T05:54:59.240Z,-11.29
2022-11-17T05:57:32.856Z,-11.15
2022-11-17T06:00:05.137Z,-11.06
2022-11-17T06:02:52.542Z,-11.13
2022-11-17T06:05:24.707Z,-11.54
2022-11-17T06:07:55.539Z,-11.27
2022-11-17T06:10:24.101Z,-11.75
2022-11-17T06:12:52.763Z,-11.67
2022-11-17T06:15:21.599Z,-12.13
2022-11-17T06:17:56.083Z,-12.27
2022-11-17T06:20:24.038Z,-12.48
2022-11-17T06:22:52.264Z,-12.85
2022-11-17T06:25:21.782Z,-13.00
2022-11-17T06:27:52.524Z,-13.08
2022-11-17T06:30:21.617Z,-13.33
2022-11-17T06:32:51.500Z,-13.54
2022-11-17T06:35:20.157Z,-13.41
2022-11-17T06:37:48.798Z,-13.17
2022-11-17T06:40:18.156Z,-13.14
2022-11-17T06:43:04.763Z,-13.32
2022-11-17T06:45:47.505Z,-13.21
2022-11-17T06:48:18.109Z,-13.25
2022-11-17T06:50:49.446Z,-13.12
2022-11-17T06:53:18.189Z,-13.32
2022-11-17T06:56:05.041Z,-13.26
2022-11-17T06:58:34.295Z,-12.99
2022-11-17T07:01:05.708Z,-13.49
2022-11-17T07:03:38.574Z,-13.16
2022-11-17T07:06:11.271Z,-13.24
2022-11-17T07:08:40.673Z,-12.93
2022-11-17T07:11:12.693Z,-12.70
2022-11-17T07:13:41.488Z,-12.45
2022-11-17T07:16:17.450Z,-12.39
2022-11-17T07:18:48.845Z,-12.42
2022-11-17T07:21:18.774Z,-12.31
2022-11-17T07:23:47.899Z,-12.35
2022-11-17T07:26:16.641Z,-12.82
2022-11-17T07:28:47.757Z,-12.52
2022-11-17T07:31:16.737Z,-12.62
2022-11-17T07:33:45.490Z,-12.73
2022-11-17T07:36:17.769Z,-12.73
2022-11-17T07:38:46.500Z,-12.64
2022-11-17T07:41:15.699Z,-12.53
2022-11-17T07:43:44.535Z,-12.74
2022-11-17T07:46:15.963Z,-12.66
2022-11-17T07:48:45.138Z,-12.68
2022-11-17T07:51:14.763Z,-12.65
2022-11-17T07:53:43.414Z,-12.39
2022-11-17T07:56:12.463Z,-12.43
2022-11-17T07:58:41.667Z,-12.32
2022-11-17T08:01:13.366Z,-12.06
2022-11-17T08:03:42.528Z,-12.00
2022-11-17T08:06:11.822Z,-12.28
2022-11-17T08:08:40.658Z,-12.22
2022-11-17T08:11:13.685Z,-12.15
2022-11-17T08:13:42.937Z,-11.90
2022-11-17T08:16:11.444Z,-12.00
2022-11-17T08:18:40.993Z,-12.01
2022-11-17T08:21:14.764Z,-12.56
2022-11-17T08:23:43.934Z,-12.30
2022-11-17T08:26:13.033Z,-12.73
2022-11-17T08:28:41.846Z,-12.53
2022-11-17T08:31:10.748Z,-12.57
2022-11-17T08:33:40.005Z,-12.99
2022-11-17T08:36:09.164Z,-12.83
2022-11-17T08:38:38.202Z,-12.75
2022-11-17T08:41:09.306Z,-12.62
2022-11-17T08:43:38.614Z,-12.94
2022-11-17T08:46:11.932Z,-12.83
2022-11-17T08:48:41.101Z,-13.00
2022-11-17T08:51:10.267Z,-12.92
2022-11-17T08:53:38.785Z,-13.27
2022-11-17T08:56:08.616Z,-12.85
2022-11-17T08:58:45.169Z,-12.96
2022-11-17T09:01:16.650Z,-12.85
2022-11-17T09:03:47.165Z,-13.02
2022-11-17T09:06:17.433Z,-12.94
2022-11-17T09:08:47.257Z,-12.93
2022-11-17T09:11:17.240Z,-13.14
2022-11-17T09:13:47.496Z,-13.23
2022-11-17T09:16:17.481Z,-13.18
2022-11-17T09:18:46.514Z,-13.34
2022-11-17T09:21:16.929Z,-13.37
2022-11-17T09:23:45.853Z,-13.36
2022-11-17T09:26:16.070Z,-13.44
2022-11-17T09:28:46.050Z,-13.57
2022-11-17T09:31:17.996Z,-13.60
2022-11-17T09:33:47.199Z,-13.43
2022-11-17T09:36:17.385Z,-13.56
2022-11-17T09:38:47.505Z,-13.57
2022-11-17T09:41:22.566Z,-13.46
2022-11-17T09:44:15.008Z,-13.71
2022-11-17T09:47:03.890Z,-13.64
2022-11-17T09:49:36.489Z,-13.74
2022-11-17T09:52:22.828Z,-13.87
2022-11-17T09:55:01.168Z,-14.44
2022-11-17T09:57:50.184Z,-13.68
2022-11-17T10:00:23.777Z,-13.71
2022-11-17T10:02:54.648Z,-13.84
2022-11-17T10:05:26.264Z,-13.65
2022-11-17T10:08:00.816Z,-13.76
2022-11-17T10:10:40.196Z,-13.98
2022-11-17T10:13:24.837Z,-13.76
2022-11-17T10:16:13.300Z,-14.16
2022-11-17T10:18:41.803Z,-13.94
2022-11-17T10:21:10.531Z,-14.02
2022-11-17T10:23:47.536Z,-13.90
2022-11-17T10:26:17.504Z,-14.14
2022-11-17T10:28:46.758Z,-14.00
2022-11-17T10:31:18.065Z,-14.21
2022-11-17T10:33:51.339Z,-14.04
2022-11-17T10:36:31.611Z,-14.07
2022-11-17T10:39:01.655Z,-14.37
2022-11-17T10:41:51.029Z,-14.23
2022-11-17T10:44:28.633Z,-14.81
2022-11-17T10:47:02.714Z,-14.32
2022-11-17T10:49:33.939Z,-14.23
2022-11-17T10:52:15.340Z,-14.38
2022-11-17T10:54:44.493Z,-14.59
2022-11-17T10:57:27.622Z,-14.89
2022-11-17T11:00:01.054Z,-14.55
2022-11-17T11:02:39.817Z,-14.78
2022-11-17T11:05:22.023Z,-14.59
2022-11-17T11:07:50.422Z,-14.55
2022-11-17T11:10:32.862Z,-15.25
2022-11-17T11:13:14.107Z,-14.84
2022-11-17T11:15:43.018Z,-14.75
2022-11-17T11:18:17.183Z,-14.93
2022-11-17T11:21:14.823Z,-14.84
2022-11-17T11:23:53.931Z,-15.14
2022-11-17T11:26:25.620Z,-14.90
2022-11-17T11:29:25.345Z,-15.31
2022-11-17T11:32:01.891Z,-15.68
2022-11-17T11:34:33.758Z,-14.81
2022-11-17T11:37:17.050Z,-14.99
2022-11-17T11:39:59.843Z,-14.98
2022-11-17T11:42:46.953Z,-14.81
2022-11-17T11:45:21.338Z,-14.79
2022-11-17T11:48:14.948Z,-14.80
2022-11-17T11:50:50.097Z,-14.80
2022-11-17T11:53:38.680Z,-15.27
2022-11-17T11:56:29.608Z,-14.89
2022-11-17T11:59:42.936Z,-14.93
2022-11-17T12:02:27.951Z,-14.96
2022-11-17T12:05:01.789Z,-14.97
2022-11-17T12:07:45.852Z,-15.00
2022-11-17T12:10:25.356Z,-15.03
2022-11-17T12:12:54.648Z,-15.14
2022-11-17T12:15:23.420Z,-15.12
2022-11-17T12:18:04.818Z,-15.49
2022-11-17T12:20:39.608Z,-15.21
2022-11-17T12:23:25.998Z,-15.25
2022-11-17T12:25:57.109Z,-15.27
2022-11-17T12:28:37.254Z,-15.28
2022-11-17T12:31:12.375Z,-15.48
2022-11-17T12:33:56.345Z,-15.27
2022-11-17T12:36:30.240Z,-15.34
2022-11-17T12:39:02.509Z,-15.36
2022-11-17T12:41:49.661Z,-15.25
2022-11-17T12:44:39.643Z,-15.30
2022-11-17T12:47:14.287Z,-15.28
2022-11-17T12:50:03.528Z,-15.28
2022-11-17T12:52:31.585Z,-15.46
2022-11-17T12:55:24.748Z,-15.40
2022-11-17T12:58:09.151Z,-15.58
2022-11-17T13:01:06.485Z,-15.56
2022-11-17T13:03:45.332Z,-15.78
2022-11-17T13:09:03.449Z,-16.49
2022-11-17T13:11:31.771Z,-15.92
2022-11-17T16:51:21.506Z,-18.74
2022-11-17T16:53:57.407Z,-18.59
2022-11-17T16:56:26.350Z,-18.71
2022-11-17T16:58:55.612Z,-18.57
2022-11-17T17:01:26.987Z,-18.67
2022-11-17T17:04:00.493Z,-18.53
2022-11-17T17:06:29.451Z,-18.96
2022-11-17T17:09:00.371Z,-18.63
2022-11-17T17:11:32.332Z,-18.71
2022-11-17T17:14:05.891Z,-18.63
2022-11-17T17:16:39.131Z,-19.11
2022-11-17T17:20:07.864Z,-19.02
2022-11-17T17:22:37.194Z,-18.93
2022-11-17T17:25:06.366Z,-18.81
2022-11-17T17:27:35.122Z,-19.02
2022-11-17T17:30:03.951Z,-18.91
2022-11-17T17:32:32.910Z,-18.77
2022-11-17T17:35:01.803Z,-18.94
2022-11-17T17:37:34.066Z,-18.83
2022-11-17T17:40:03.152Z,-19.05
2022-11-17T17:42:31.909Z,-18.93
2022-11-17T17:45:00.522Z,-19.08
2022-11-17T17:47:29.497Z,-19.01
2022-11-17T17:49:58.379Z,-18.97
